Bruck an der Leitha, Austria
Current Conditions -  °F | °C
As of 6:50 PM on Friday 24 Oct 2014 (Local Time) from LOWW Reporting Station
Broken Clouds Broken Clouds  
Wind Chill: 37°   Ceiling: 7000
Heat Index: 43°   Visibility: 6mi
Dew Point: 39°   Wind: 12mph
Humidity: 87%   Direction: 350°N
Pressure: 30.15"   Gusts: NA
Location:  48.02°N, 16.78°E
Report Text: LOWW 241750Z 35010KT 9999 FEW060 BKN070 06/04 Q1021 NOSIG
Loading
Personal Weather Stations






























Interactive Weather Map
Tropical Storm Tracking
New forecast layout! Learn more

10-Day Weather Forecast

Advertisements
Track Severe Weather on mobile